Time;durP1;ratioP1;P1;durP2;ratioP2;P2;SDS_P1;SDS_P2;PMS_P1;PMS_P2;Temp;Humidity;BMP_temperature;BMP_pressure;BME280_temperature;BME280_humidity;BME280_pressure;Samples;Min_cycle;Max_cycle;Signal;HPM_P1;HPM_P2
2021/06/12 00:00:31;;;;;;;13.67;12.27;;;18.00;97.30;;;;;;5069909;28;20645;-87
2021/06/12 00:02:58;;;;;;;12.10;11.10;;;18.00;97.10;;;;;;5070110;28;20608;-87
2021/06/12 00:05:26;;;;;;;11.80;10.77;;;18.00;97.90;;;;;;5069746;28;20611;-87
2021/06/12 00:07:53;;;;;;;12.93;11.70;;;17.90;97.40;;;;;;5070068;28;20611;-86
2021/06/12 00:10:25;;;;;;;12.80;11.80;;;17.90;97.40;;;;;;5069866;28;20617;-86
2021/06/12 00:12:53;;;;;;;13.23;12.03;;;17.80;97.70;;;;;;5069816;28;20622;-86
2021/06/12 00:15:22;;;;;;;13.33;12.10;;;17.80;98.40;;;;;;5069591;28;20787;-87
2021/06/12 00:17:49;;;;;;;13.73;11.67;;;17.70;98.20;;;;;;5069664;28;21062;-87
2021/06/12 00:20:19;;;;;;;12.70;11.67;;;17.60;98.80;;;;;;5073699;28;20615;-87
2021/06/12 00:22:45;;;;;;;11.60;10.60;;;17.60;98.50;;;;;;5073500;28;20604;-86
2021/06/12 00:25:13;;;;;;;12.97;11.77;;;17.60;98.70;;;;;;5073335;28;20982;-86
2021/06/12 00:27:40;;;;;;;13.03;12.03;;;17.50;99.40;;;;;;5073628;28;20633;-86
2021/06/12 00:30:07;;;;;;;12.87;11.77;;;17.50;99.60;;;;;;5073187;28;20627;-87
2021/06/12 00:32:35;;;;;;;12.43;11.43;;;17.50;99.70;;;;;;5073282;28;20683;-87
2021/06/12 00:35:02;;;;;;;12.27;11.27;;;17.50;99.90;;;;;;5073244;28;20648;-86
2021/06/12 00:37:28;;;;;;;12.50;11.50;;;17.50;99.50;;;;;;5060871;28;21234;-86
2021/06/12 00:39:55;;;;;;;13.83;12.70;;;17.40;99.50;;;;;;5053106;28;20627;-86
2021/06/12 00:42:22;;;;;;;14.23;13.17;;;17.30;99.90;;;;;;5052760;28;20621;-87
2021/06/12 00:44:48;;;;;;;13.30;12.17;;;17.40;99.90;;;;;;5064524;28;20631;-86
2021/06/12 00:47:15;;;;;;;14.40;13.10;;;17.40;99.30;;;;;;5072955;28;20672;-86
2021/06/12 00:49:42;;;;;;;14.60;13.40;;;17.40;99.10;;;;;;5073171;28;20614;-86
2021/06/12 00:52:09;;;;;;;15.17;13.90;;;17.40;99.50;;;;;;5072588;28;21000;-87
2021/06/12 00:54:36;;;;;;;14.13;13.03;;;17.30;99.90;;;;;;5072399;28;21325;-86
2021/06/12 00:57:04;;;;;;;13.67;12.47;;;17.30;99.90;;;;;;5073279;28;21004;-86
2021/06/12 00:59:31;;;;;;;13.50;12.27;;;17.30;99.50;;;;;;5072533;28;20679;-86
2021/06/12 01:01:57;;;;;;;12.30;11.30;;;17.30;99.30;;;;;;5072557;28;21159;-86
2021/06/12 01:04:25;;;;;;;15.60;14.27;;;17.30;98.80;;;;;;5071935;28;21175;-86
2021/06/12 01:06:54;;;;;;;15.93;14.63;;;17.30;98.90;;;;;;5072366;28;21039;-86
2021/06/12 01:09:23;;;;;;;13.70;12.50;;;17.10;98.80;;;;;;5069388;28;22307;-86
2021/06/12 01:12:00;;;;;;;14.93;13.73;;;17.10;98.90;;;;;;5066958;28;20622;-86
2021/06/12 01:14:36;;;;;;;14.63;13.37;;;17.10;99.20;;;;;;5068447;28;20694;-86
2021/06/12 01:17:12;;;;;;;13.30;12.13;;;17.10;99.50;;;;;;5072508;28;20971;-86
2021/06/12 01:20:14;;;;;;;13.50;12.27;;;17.10;99.30;;;;;;5072310;28;20670;-86
2021/06/12 01:22:59;;;;;;;14.50;13.03;;;17.00;99.00;;;;;;5069277;28;20618;-86
2021/06/12 01:25:39;;;;;;;14.67;13.37;;;17.00;99.70;;;;;;5071820;28;20654;-86
2021/06/12 01:28:35;;;;;;;14.10;12.70;;;17.00;99.90;;;;;;5072112;28;21279;-86
2021/06/12 01:31:05;;;;;;;14.27;12.80;;;17.00;99.90;;;;;;5071341;28;20720;-86
2021/06/12 01:33:35;;;;;;;14.90;13.17;;;16.90;99.70;;;;;;5072161;28;20639;-86
2021/06/12 01:36:06;;;;;;;14.43;12.90;;;16.80;99.40;;;;;;5071424;28;20645;-86
2021/06/12 01:38:51;;;;;;;15.33;13.93;;;16.80;99.80;;;;;;5071958;28;20662;-86
2021/06/12 01:41:21;;;;;;;15.20;14.00;;;16.80;99.80;;;;;;5071778;28;20624;-86
2021/06/12 01:43:52;;;;;;;16.10;14.67;;;16.70;99.90;;;;;;5071980;28;20627;-85
2021/06/12 01:46:23;;;;;;;14.27;12.97;;;16.70;99.80;;;;;;5071271;28;21185;-86
2021/06/12 01:48:52;;;;;;;14.73;13.33;;;16.70;99.90;;;;;;5066279;28;20696;-86
2021/06/12 01:51:20;;;;;;;14.20;13.00;;;16.70;99.90;;;;;;5070900;28;20695;-86
2021/06/12 01:53:53;;;;;;;14.33;13.10;;;16.70;99.90;;;;;;5072062;28;20599;-86
2021/06/12 01:56:25;;;;;;;13.37;12.17;;;16.70;99.90;;;;;;5071145;28;20994;-86
2021/06/12 01:58:55;;;;;;;13.60;12.40;;;16.70;99.90;;;;;;5072029;28;20700;-86
2021/06/12 02:01:26;;;;;;;13.80;12.70;;;16.60;99.90;;;;;;5071377;28;20617;-86
2021/06/12 02:03:55;;;;;;;13.90;12.67;;;16.60;99.90;;;;;;5071596;28;21169;-86
2021/06/12 02:06:22;;;;;;;13.53;12.20;;;16.60;99.90;;;;;;5070985;28;20976;-85
2021/06/12 02:08:51;;;;;;;14.97;13.67;;;16.60;99.90;;;;;;5071582;28;20989;-86
2021/06/12 02:11:20;;;;;;;13.70;12.53;;;16.60;99.90;;;;;;5056365;28;20656;-85
2021/06/12 02:13:49;;;;;;;14.97;13.67;;;16.60;99.90;;;;;;5051445;28;20624;-86
2021/06/12 02:16:21;;;;;;;13.43;12.17;;;16.50;99.90;;;;;;5050666;28;20642;-85
2021/06/12 02:18:52;;;;;;;14.30;13.10;;;16.50;99.90;;;;;;5051531;28;20734;-86
2021/06/12 02:21:22;;;;;;;14.77;13.57;;;16.50;99.90;;;;;;5051319;28;20996;-86
2021/06/12 02:23:51;;;;;;;15.70;14.40;;;16.50;99.90;;;;;;5065087;28;21348;-85
2021/06/12 02:26:20;;;;;;;15.93;14.43;;;16.40;99.90;;;;;;5070770;28;21042;-86
2021/06/12 02:28:50;;;;;;;15.20;13.60;;;16.40;99.90;;;;;;5070688;28;20597;-86
2021/06/12 02:31:22;;;;;;;14.23;13.03;;;16.40;99.90;;;;;;5071169;28;21166;-85
2021/06/12 02:33:49;;;;;;;14.77;13.47;;;16.50;99.90;;;;;;5071301;28;20647;-85
2021/06/12 02:36:17;;;;;;;15.80;14.40;;;16.40;99.90;;;;;;5070489;28;21237;-85
2021/06/12 02:38:43;;;;;;;15.43;14.03;;;16.30;99.90;;;;;;5070701;28;20613;-85
2021/06/12 02:41:10;;;;;;;14.50;13.30;;;16.30;99.90;;;;;;5070670;28;20675;-85
2021/06/12 02:43:36;;;;;;;13.13;12.03;;;16.40;99.90;;;;;;5070344;28;20602;-85
2021/06/12 02:46:07;;;;;;;15.73;14.23;;;16.30;99.90;;;;;;5070456;28;20606;-85
2021/06/12 02:48:33;;;;;;;14.60;13.30;;;16.30;99.90;;;;;;5070949;28;20610;-85
2021/06/12 02:51:01;;;;;;;17.00;15.50;;;16.30;99.90;;;;;;5071279;28;20629;-86
2021/06/12 02:53:34;;;;;;;16.60;15.10;;;16.30;99.90;;;;;;5070778;28;20624;-85
2021/06/12 02:56:03;;;;;;;16.17;14.57;;;16.20;99.90;;;;;;5070062;28;21193;-86
2021/06/12 02:58:30;;;;;;;16.63;15.03;;;16.20;99.90;;;;;;5070330;28;21181;-86
2021/06/12 03:00:57;;;;;;;17.50;15.90;;;16.20;99.90;;;;;;5070787;28;20662;-86
2021/06/12 03:03:25;;;;;;;16.57;15.03;;;16.20;99.90;;;;;;5070859;28;20621;-85
2021/06/12 03:05:54;;;;;;;17.50;15.63;;;16.10;99.90;;;;;;5070402;28;20605;-85
2021/06/12 03:08:24;;;;;;;18.33;15.27;;;16.10;99.90;;;;;;5070337;28;20701;-85
2021/06/12 03:10:53;;;;;;;17.17;15.77;;;16.10;99.90;;;;;;5059159;28;20642;-86
2021/06/12 03:13:26;;;;;;;16.40;14.83;;;16.00;99.90;;;;;;5050339;28;20992;-85
2021/06/12 03:15:54;;;;;;;18.20;16.17;;;16.00;99.90;;;;;;5049944;28;20692;-85
2021/06/12 03:18:23;;;;;;;16.17;14.77;;;16.00;99.90;;;;;;5050438;28;20692;-85
2021/06/12 03:20:55;;;;;;;16.53;15.03;;;16.00;99.90;;;;;;5050328;28;20610;-85
2021/06/12 03:23:23;;;;;;;16.13;14.63;;;16.00;99.90;;;;;;5060618;28;20659;-85
2021/06/12 03:25:53;;;;;;;16.57;14.97;;;15.90;99.90;;;;;;5070070;28;21190;-85
2021/06/12 03:28:21;;;;;;;17.87;16.00;;;16.00;99.90;;;;;;5070660;28;20644;-85
2021/06/12 03:30:49;;;;;;;16.10;14.63;;;15.90;99.90;;;;;;5070649;28;21166;-85
2021/06/12 03:33:16;;;;;;;16.40;14.93;;;16.00;99.90;;;;;;5070438;28;20588;-85
2021/06/12 03:35:45;;;;;;;17.83;16.13;;;16.00;99.90;;;;;;5069669;28;20636;-85
2021/06/12 03:38:14;;;;;;;15.93;14.53;;;15.90;99.90;;;;;;5070348;28;20712;-85
2021/06/12 03:40:41;;;;;;;17.43;15.90;;;15.90;99.90;;;;;;5070138;28;20977;-85
2021/06/12 03:43:10;;;;;;;17.97;16.20;;;15.90;99.90;;;;;;5070329;28;20679;-84
2021/06/12 03:45:42;;;;;;;16.10;14.70;;;16.00;99.90;;;;;;5069177;28;20657;-85
2021/06/12 03:48:11;;;;;;;16.23;14.80;;;16.00;99.90;;;;;;5070240;28;20601;-85
2021/06/12 03:50:39;;;;;;;16.97;15.27;;;16.00;99.90;;;;;;5069902;28;20625;-85
2021/06/12 03:53:08;;;;;;;16.37;14.73;;;15.90;99.90;;;;;;5070554;28;20648;-85
2021/06/12 03:55:35;;;;;;;14.70;13.40;;;15.90;99.90;;;;;;5073349;28;20605;-85
2021/06/12 03:58:01;;;;;;;18.43;14.30;;;15.90;99.90;;;;;;5073835;28;21196;-85
2021/06/12 04:00:31;;;;;;;16.33;14.93;;;16.00;99.90;;;;;;5073628;28;20655;-85
2021/06/12 04:02:57;;;;;;;15.53;14.10;;;16.00;99.90;;;;;;5074417;28;20612;-85
2021/06/12 04:05:24;;;;;;;17.23;15.60;;;16.00;99.90;;;;;;5073527;28;20690;-85
2021/06/12 04:07:50;;;;;;;16.80;15.20;;;16.00;99.90;;;;;;5073768;28;20625;-85
2021/06/12 04:10:16;;;;;;;16.67;15.23;;;15.90;99.90;;;;;;5067114;28;20634;-85
2021/06/12 04:12:43;;;;;;;17.00;15.60;;;15.90;99.90;;;;;;5053976;28;20671;-84
2021/06/12 04:15:10;;;;;;;17.53;15.87;;;15.90;99.90;;;;;;5052793;28;20984;-85
2021/06/12 04:17:39;;;;;;;15.57;14.20;;;15.90;99.90;;;;;;5053855;28;20621;-85
2021/06/12 04:20:06;;;;;;;16.50;14.83;;;16.00;99.90;;;;;;5053456;28;20621;-84
2021/06/12 04:22:33;;;;;;;15.13;13.83;;;16.00;99.90;;;;;;5057045;28;20617;-85
2021/06/12 04:24:59;;;;;;;15.73;14.23;;;15.90;99.90;;;;;;5073030;28;21009;-85
2021/06/12 04:27:25;;;;;;;14.67;13.27;;;15.90;99.90;;;;;;5073392;28;20636;-85
2021/06/12 04:29:52;;;;;;;16.20;14.60;;;15.80;99.90;;;;;;5072623;28;20660;-85
2021/06/12 04:32:18;;;;;;;15.73;14.33;;;15.80;99.90;;;;;;5072815;28;20621;-84
2021/06/12 04:34:46;;;;;;;14.90;13.50;;;15.90;99.90;;;;;;5073020;28;20664;-85
2021/06/12 04:37:13;;;;;;;16.30;14.67;;;15.90;99.90;;;;;;5073315;28;20597;-84
2021/06/12 04:39:40;;;;;;;17.23;15.63;;;16.00;99.90;;;;;;5073393;28;20609;-84
2021/06/12 04:42:07;;;;;;;16.93;14.37;;;16.10;99.90;;;;;;5072825;28;21190;-85
2021/06/12 04:44:35;;;;;;;16.87;15.30;;;16.10;99.90;;;;;;5072203;28;20655;-84
2021/06/12 04:47:01;;;;;;;17.20;15.80;;;16.20;99.90;;;;;;5072917;28;20629;-84
2021/06/12 04:49:28;;;;;;;17.47;15.63;;;16.30;99.90;;;;;;5073201;28;20606;-84
2021/06/12 04:51:55;;;;;;;17.73;15.07;;;16.30;99.90;;;;;;5072639;28;20617;-84
2021/06/12 04:54:22;;;;;;;17.07;15.37;;;16.40;99.90;;;;;;5072570;28;20632;-85
2021/06/12 04:56:48;;;;;;;16.33;14.80;;;16.50;99.90;;;;;;5072345;28;20655;-84
2021/06/12 04:59:15;;;;;;;15.50;14.00;;;16.60;99.90;;;;;;5073085;28;20610;-84
2021/06/12 05:01:41;;;;;;;22.07;15.00;;;16.80;99.90;;;;;;5072589;28;20605;-84
2021/06/12 05:04:07;;;;;;;15.33;13.50;;;16.90;99.90;;;;;;5072816;28;20653;-84
2021/06/12 05:06:34;;;;;;;16.10;14.70;;;17.00;99.90;;;;;;5072271;28;20692;-85
2021/06/12 05:09:03;;;;;;;17.50;15.80;;;17.10;99.90;;;;;;5072481;28;20613;-84
2021/06/12 05:11:29;;;;;;;19.17;14.70;;;17.20;99.90;;;;;;5055574;28;20621;-84
2021/06/12 05:13:56;;;;;;;14.87;13.57;;;17.30;99.90;;;;;;5052331;28;20645;-84
2021/06/12 05:16:22;;;;;;;14.67;13.27;;;17.30;99.90;;;;;;5052349;28;20974;-84
2021/06/12 05:18:49;;;;;;;15.73;14.37;;;17.40;99.90;;;;;;5052259;28;20630;-84
2021/06/12 05:21:16;;;;;;;15.00;13.60;;;17.40;99.90;;;;;;5050227;28;20641;-84
2021/06/12 05:23:43;;;;;;;13.80;12.67;;;17.60;99.90;;;;;;5065208;28;20615;-84
2021/06/12 05:26:13;;;;;;;13.77;12.57;;;17.70;99.90;;;;;;5071111;28;20659;-84
2021/06/12 05:28:39;;;;;;;14.20;12.97;;;17.70;99.90;;;;;;5072149;28;20663;-84
2021/06/12 05:31:06;;;;;;;13.90;12.53;;;17.90;99.90;;;;;;5071987;28;20663;-84
2021/06/12 05:33:33;;;;;;;14.93;13.63;;;17.90;99.90;;;;;;5066319;28;20657;-84
2021/06/12 05:36:00;;;;;;;13.97;12.60;;;18.00;99.90;;;;;;5071570;28;20652;-84
2021/06/12 05:38:27;;;;;;;13.50;12.40;;;18.10;99.90;;;;;;5065078;28;20656;-84
2021/06/12 05:40:54;;;;;;;13.63;12.43;;;18.20;99.90;;;;;;5065540;28;20630;-84
2021/06/12 05:43:22;;;;;;;13.90;12.70;;;18.30;99.90;;;;;;5069736;28;20685;-84
2021/06/12 05:45:49;;;;;;;13.97;12.67;;;18.30;99.80;;;;;;5071213;28;20643;-84
2021/06/12 05:48:15;;;;;;;13.70;12.50;;;18.40;99.90;;;;;;5071981;28;20627;-84
2021/06/12 05:50:41;;;;;;;14.20;13.00;;;18.40;99.90;;;;;;5071676;28;20602;-84
2021/06/12 05:53:08;;;;;;;13.70;12.60;;;18.50;99.90;;;;;;5068313;28;20633;-84
2021/06/12 05:55:34;;;;;;;12.93;11.90;;;18.60;99.40;;;;;;5068815;28;20644;-84
2021/06/12 05:58:01;;;;;;;14.10;12.90;;;18.70;99.90;;;;;;5071625;28;20608;-84
2021/06/12 06:00:29;;;;;;;12.73;11.60;;;18.80;99.90;;;;;;5070228;28;20613;-85
2021/06/12 06:02:55;;;;;;;13.47;12.27;;;18.80;99.50;;;;;;5058740;28;20621;-85
2021/06/12 06:05:22;;;;;;;13.53;12.40;;;18.90;99.50;;;;;;5056284;28;21272;-84
2021/06/12 06:07:48;;;;;;;12.80;11.70;;;19.00;99.30;;;;;;5060344;28;20633;-85
2021/06/12 06:10:15;;;;;;;12.40;10.93;;;19.10;99.40;;;;;;5058042;28;20677;-85
2021/06/12 06:12:41;;;;;;;13.70;12.60;;;19.30;99.40;;;;;;5051606;28;20615;-84
2021/06/12 06:15:11;;;;;;;13.70;12.50;;;19.30;99.10;;;;;;5050636;28;20622;-85
2021/06/12 06:17:39;;;;;;;11.93;10.97;;;19.40;99.20;;;;;;5051032;28;20626;-85
2021/06/12 06:20:07;;;;;;;13.37;12.30;;;19.50;99.10;;;;;;5050809;28;20614;-84
2021/06/12 06:22:34;;;;;;;11.17;10.20;;;19.60;98.70;;;;;;5054149;28;20621;-85
2021/06/12 06:25:00;;;;;;;12.17;11.17;;;19.70;98.30;;;;;;5070697;28;20691;-85
2021/06/12 06:27:27;;;;;;;12.90;11.77;;;19.80;98.00;;;;;;5069946;28;20636;-85
2021/06/12 06:29:53;;;;;;;13.00;11.73;;;19.90;98.00;;;;;;5069213;28;20960;-85
2021/06/12 06:32:20;;;;;;;13.57;12.57;;;19.90;97.90;;;;;;5069222;28;20748;-85
2021/06/12 06:34:48;;;;;;;12.67;11.40;;;20.00;97.50;;;;;;5068856;28;20605;-85
2021/06/12 06:37:14;;;;;;;12.87;11.77;;;20.10;97.80;;;;;;5070109;28;20662;-85
2021/06/12 06:39:41;;;;;;;13.50;12.37;;;20.20;97.80;;;;;;5071080;28;20617;-85
2021/06/12 06:42:08;;;;;;;13.20;12.20;;;20.40;98.00;;;;;;5069502;28;20648;-85
2021/06/12 06:44:36;;;;;;;12.50;11.50;;;20.40;97.20;;;;;;5065402;28;20629;-84
2021/06/12 06:47:04;;;;;;;12.40;11.50;;;20.40;97.30;;;;;;5069822;28;20706;-85
2021/06/12 06:49:30;;;;;;;12.40;11.40;;;20.50;97.30;;;;;;5070463;28;20683;-84
2021/06/12 06:51:58;;;;;;;12.93;11.83;;;20.60;97.40;;;;;;5070558;28;20685;-85
2021/06/12 06:54:25;;;;;;;13.03;11.97;;;20.70;97.60;;;;;;5070208;28;20621;-85
2021/06/12 06:56:52;;;;;;;11.80;10.90;;;20.80;97.30;;;;;;5070398;28;20629;-84
2021/06/12 06:59:18;;;;;;;12.40;11.50;;;20.90;96.80;;;;;;5070450;28;21189;-85
2021/06/12 07:01:46;;;;;;;11.70;10.80;;;21.10;97.10;;;;;;5061400;28;21172;-85
2021/06/12 07:04:13;;;;;;;12.33;11.33;;;21.00;96.90;;;;;;5057205;28;20636;-85
2021/06/12 07:06:39;;;;;;;12.40;11.40;;;21.10;97.20;;;;;;5068213;28;21225;-85
2021/06/12 07:09:08;;;;;;;11.57;10.67;;;21.30;96.50;;;;;;5070445;28;20634;-84
2021/06/12 07:11:34;;;;;;;12.07;11.07;;;21.40;96.70;;;;;;5050190;28;20661;-85
2021/06/12 07:14:01;;;;;;;12.53;11.40;;;21.40;97.00;;;;;;5069501;28;21248;-85
2021/06/12 07:16:28;;;;;;;11.77;10.37;;;21.40;97.30;;;;;;5069232;28;20623;-85
2021/06/12 07:18:54;;;;;;;12.37;11.47;;;21.50;97.00;;;;;;5068976;28;21288;-85
2021/06/12 07:21:21;;;;;;;12.13;11.13;;;21.60;96.30;;;;;;5068740;28;20612;-85
2021/06/12 07:23:48;;;;;;;12.07;10.87;;;21.80;95.40;;;;;;5069910;28;20635;-84
2021/06/12 07:26:15;;;;;;;10.67;9.77;;;22.00;94.80;;;;;;5068993;28;20652;-85
2021/06/12 07:28:42;;;;;;;10.80;10.00;;;22.10;95.10;;;;;;5071462;28;21245;-86
2021/06/12 07:31:09;;;;;;;9.70;9.00;;;22.30;95.40;;;;;;5073593;28;20676;-86
2021/06/12 07:33:35;;;;;;;9.20;8.50;;;22.30;94.80;;;;;;5073725;28;20738;-85
2021/06/12 07:36:02;;;;;;;10.43;9.67;;;22.20;95.20;;;;;;5073131;28;20630;-85
2021/06/12 07:38:29;;;;;;;9.83;9.00;;;22.40;94.10;;;;;;5073477;28;20608;-86
2021/06/12 07:40:55;;;;;;;10.80;8.73;;;22.40;94.70;;;;;;5073727;28;20632;-86
2021/06/12 07:43:23;;;;;;;9.07;8.40;;;22.50;94.30;;;;;;5070903;28;20646;-86
2021/06/12 07:45:50;;;;;;;9.50;8.70;;;22.60;93.80;;;;;;5072520;28;20655;-86
2021/06/12 07:48:17;;;;;;;8.00;7.43;;;22.80;94.20;;;;;;5073443;28;21029;-85
2021/06/12 07:50:45;;;;;;;8.37;7.77;;;22.90;93.10;;;;;;5073388;28;20624;-85
2021/06/12 07:53:11;;;;;;;9.03;8.13;;;23.10;93.80;;;;;;5070574;28;20617;-85
2021/06/12 07:55:38;;;;;;;8.27;7.57;;;23.20;94.10;;;;;;5071865;28;20753;-86
2021/06/12 07:58:06;;;;;;;8.17;6.33;;;23.30;93.30;;;;;;5072905;28;20205;-87
2021/06/12 08:00:34;;;;;;;6.63;6.10;;;23.40;91.90;;;;;;5073419;28;20702;-87
2021/06/12 08:03:00;;;;;;;6.00;5.60;;;23.70;92.00;;;;;;5073874;28;20672;-87
2021/06/12 08:05:27;;;;;;;8.63;6.37;;;23.80;90.90;;;;;;5070620;28;20648;-86
2021/06/12 08:07:54;;;;;;;5.57;5.17;;;23.90;90.50;;;;;;5065753;28;20715;-88
2021/06/12 08:10:21;;;;;;;5.30;4.90;;;24.00;90.00;;;;;;5070904;28;20631;-87
2021/06/12 08:12:47;;;;;;;6.67;5.40;;;24.00;87.80;;;;;;5066845;28;20612;-88
2021/06/12 08:15:15;;;;;;;7.10;6.43;;;24.20;87.30;;;;;;5072834;28;20621;-87
2021/06/12 08:17:44;;;;;;;6.60;6.00;;;24.40;86.30;;;;;;5072678;28;20760;-87
2021/06/12 08:20:12;;;;;;;6.93;6.33;;;24.60;84.60;;;;;;5071094;28;20690;-87
2021/06/12 08:22:41;;;;;;;6.07;5.47;;;24.70;86.30;;;;;;5068845;28;21294;-87
2021/06/12 08:25:09;;;;;;;5.93;5.50;;;24.60;85.60;;;;;;5070794;28;20704;-87
2021/06/12 08:30:42;;;;;;;4.70;4.40;;;24.60;83.30;;;;;;5060476;28;20974;-87
2021/06/12 08:33:11;;;;;;;5.93;5.40;;;24.80;83.70;;;;;;5070535;28;20625;-87
2021/06/12 08:35:39;;;;;;;5.10;4.80;;;25.00;81.20;;;;;;5070996;28;21058;-87
2021/06/12 08:38:07;;;;;;;5.60;5.20;;;25.10;80.60;;;;;;5071552;28;20621;-86
2021/06/12 08:40:34;;;;;;;5.37;5.07;;;25.10;81.80;;;;;;5070816;28;20621;-87
2021/06/12 08:43:00;;;;;;;5.23;4.83;;;25.00;82.00;;;;;;5072159;28;20708;-86
2021/06/12 08:45:29;;;;;;;4.70;4.40;;;25.00;80.70;;;;;;5069331;28;20656;-86
2021/06/12 08:47:56;;;;;;;5.10;4.80;;;25.00;78.20;;;;;;5071839;28;20653;-86
2021/06/12 08:50:25;;;;;;;6.03;5.43;;;25.00;79.00;;;;;;5070463;28;20665;-86
2021/06/12 08:52:53;;;;;;;8.20;5.60;;;25.10;81.50;;;;;;5070182;28;21039;-86
2021/06/12 08:55:20;;;;;;;6.40;5.90;;;25.20;79.10;;;;;;5070634;28;20617;-86
2021/06/12 08:57:47;;;;;;;7.20;6.70;;;25.20;80.30;;;;;;5070204;28;20723;-86
2021/06/12 09:00:17;;;;;;;7.00;6.50;;;25.30;82.40;;;;;;5067943;28;21189;-87
2021/06/12 09:03:13;;;;;;;8.00;7.30;;;25.20;84.40;;;;;;5070308;28;20617;-87
2021/06/12 09:05:53;;;;;;;7.10;6.60;;;25.20;85.00;;;;;;5065053;28;20649;-88
2021/06/12 09:08:21;;;;;;;7.30;6.80;;;25.10;85.90;;;;;;5063551;28;20693;-89
2021/06/12 09:10:54;;;;;;;8.13;7.53;;;25.20;87.10;;;;;;5067165;28;20650;-88
2021/06/12 09:13:41;;;;;;;8.30;7.53;;;25.30;86.00;;;;;;5064503;28;21223;-89
2021/06/12 09:16:09;;;;;;;7.83;7.13;;;25.20;88.30;;;;;;5069181;28;20613;-88
2021/06/12 09:18:40;;;;;;;7.35;6.85;;;25.10;88.00;;;;;;5071933;28;21096;-88
2021/06/12 09:21:09;;;;;;;7.53;6.93;;;25.10;87.60;;;;;;5066895;28;20231;-88
2021/06/12 09:23:40;;;;;;;7.70;6.93;;;25.00;87.60;;;;;;5068913;28;20614;-87
2021/06/12 09:26:08;;;;;;;7.17;6.67;;;25.00;86.80;;;;;;5068402;28;20648;-90
2021/06/12 09:28:48;;;;;;;6.83;6.33;;;24.80;88.10;;;;;;5070937;28;20621;-87
2021/06/12 09:31:24;;;;;;;4.50;4.20;;;24.90;88.30;;;;;;5070144;28;21121;-89
2021/06/12 09:33:54;;;;;;;4.40;4.10;;;24.90;84.80;;;;;;5065805;28;20674;-89
2021/06/12 09:36:32;;;;;;;4.00;3.63;;;25.00;84.40;;;;;;5059547;28;20637;-87
2021/06/12 09:39:06;;;;;;;4.30;4.00;;;25.20;85.50;;;;;;5069460;28;20678;-87
2021/06/12 09:41:33;;;;;;;3.97;3.77;;;25.20;85.50;;;;;;5065171;28;20719;-86
2021/06/12 09:44:00;;;;;;;5.40;4.00;;;25.20;82.50;;;;;;5069159;28;20641;-87
2021/06/12 09:46:33;;;;;;;4.63;3.80;;;25.60;83.30;;;;;;5068826;28;20795;-86
2021/06/12 09:49:00;;;;;;;5.63;3.67;;;25.80;82.10;;;;;;5069892;28;20716;-86
2021/06/12 09:51:28;;;;;;;3.53;3.33;;;26.10;80.20;;;;;;5067421;28;20622;-86
2021/06/12 09:53:56;;;;;;;3.30;3.10;;;26.10;76.70;;;;;;5069868;28;21016;-86
2021/06/12 09:56:34;;;;;;;4.10;3.80;;;26.20;79.20;;;;;;5070943;28;20972;-88
2021/06/12 09:59:01;;;;;;;5.33;3.70;;;26.10;79.30;;;;;;5067684;28;20613;-86
2021/06/12 10:01:32;;;;;;;8.93;3.30;;;25.90;77.80;;;;;;5065000;28;20655;-87
2021/06/12 10:04:09;;;;;;;3.37;3.17;;;26.10;78.80;;;;;;5069442;28;21301;-87
2021/06/12 10:06:38;;;;;;;3.90;3.60;;;26.20;77.20;;;;;;5068571;28;21221;-87
2021/06/12 10:09:07;;;;;;;3.30;3.10;;;26.20;75.60;;;;;;5070698;28;21773;-87
2021/06/12 10:11:36;;;;;;;3.23;3.03;;;26.40;75.00;;;;;;5067271;28;20951;-86
2021/06/12 10:14:05;;;;;;;4.63;3.43;;;26.40;74.90;;;;;;5069063;28;20617;-87
2021/06/12 10:16:37;;;;;;;3.70;3.40;;;26.30;74.70;;;;;;5067763;28;20720;-86
2021/06/12 10:19:06;;;;;;;4.20;3.50;;;26.50;74.90;;;;;;5065312;28;20647;-87
2021/06/12 10:21:33;;;;;;;4.23;3.30;;;26.70;75.10;;;;;;5071039;28;20617;-86
2021/06/12 10:24:06;;;;;;;3.40;3.10;;;26.60;73.50;;;;;;5070118;28;20618;-86
2021/06/12 10:26:35;;;;;;;3.43;3.23;;;26.80;74.50;;;;;;5067991;28;20656;-86
2021/06/12 10:29:04;;;;;;;3.57;3.37;;;27.00;73.50;;;;;;5070985;28;20609;-86
2021/06/12 10:31:34;;;;;;;4.03;3.63;;;27.20;71.40;;;;;;5067629;28;20609;-86
2021/06/12 10:34:04;;;;;;;3.60;3.40;;;27.40;71.60;;;;;;5068750;28;20973;-87
2021/06/12 10:36:32;;;;;;;3.50;3.30;;;27.20;70.00;;;;;;5066589;28;20629;-86
2021/06/12 10:39:02;;;;;;;5.70;3.63;;;27.20;70.40;;;;;;5070358;28;20656;-89
2021/06/12 10:41:34;;;;;;;4.67;4.27;;;27.00;71.40;;;;;;5069549;28;20617;-87
2021/06/12 10:44:03;;;;;;;4.50;4.10;;;27.10;71.40;;;;;;5070819;28;20609;-88
2021/06/12 10:46:33;;;;;;;3.60;3.40;;;27.10;70.30;;;;;;5068783;28;21245;-88
2021/06/12 10:49:03;;;;;;;3.43;3.13;;;27.10;67.70;;;;;;5070643;28;20629;-88
2021/06/12 10:51:51;;;;;;;3.67;3.47;;;27.20;64.30;;;;;;5069274;28;21291;-88
2021/06/12 10:54:25;;;;;;;3.40;3.13;;;27.40;67.30;;;;;;5068889;28;20618;-87
2021/06/12 10:57:05;;;;;;;4.80;4.40;;;27.40;66.30;;;;;;5071072;28;20618;-87
2021/06/12 10:59:55;;;;;;;3.97;3.67;;;27.40;67.50;;;;;;5069446;28;20625;-87
2021/06/12 11:02:27;;;;;;;4.03;3.80;;;27.70;65.80;;;;;;5063889;28;20652;-87
2021/06/12 11:04:58;;;;;;;3.80;3.50;;;27.80;64.70;;;;;;5069671;28;20605;-86
2021/06/12 11:07:31;;;;;;;4.60;3.73;;;28.00;65.30;;;;;;5069308;28;20649;-87
2021/06/12 11:10:22;;;;;;;4.20;3.60;;;28.20;61.50;;;;;;5067833;28;20614;-86
2021/06/12 11:12:52;;;;;;;5.50;3.80;;;27.80;61.00;;;;;;5068381;28;20617;-86
2021/06/12 11:15:29;;;;;;;4.17;3.97;;;28.10;64.60;;;;;;5069014;28;20609;-86
2021/06/12 11:18:12;;;;;;;4.30;4.00;;;28.30;61.90;;;;;;5067755;28;20601;-86
2021/06/12 11:20:42;;;;;;;4.00;3.70;;;28.30;62.60;;;;;;5069134;28;20624;-86
2021/06/12 11:23:22;;;;;;;4.33;3.90;;;28.30;61.00;;;;;;5069243;28;20610;-86
2021/06/12 11:26:06;;;;;;;3.87;3.67;;;28.60;61.50;;;;;;5065171;28;21297;-87
2021/06/12 11:28:38;;;;;;;4.50;4.20;;;29.00;61.30;;;;;;5064015;28;20602;-87
2021/06/12 11:31:28;;;;;;;4.03;3.73;;;28.90;60.40;;;;;;5069402;28;20629;-86
2021/06/12 11:34:18;;;;;;;3.67;3.47;;;29.10;60.80;;;;;;5068637;28;20621;-86
2021/06/12 11:36:46;;;;;;;3.93;3.63;;;29.50;59.80;;;;;;5069927;28;20938;-86
2021/06/12 11:39:13;;;;;;;4.80;3.80;;;29.90;59.30;;;;;;5070483;28;20617;-86
2021/06/12 11:41:40;;;;;;;3.90;3.60;;;30.20;58.80;;;;;;5070066;28;20708;-87
2021/06/12 11:44:09;;;;;;;4.13;3.83;;;29.90;57.10;;;;;;5069379;28;20720;-86
2021/06/12 11:46:38;;;;;;;3.60;3.40;;;29.10;56.50;;;;;;5068633;28;20645;-86
2021/06/12 11:49:07;;;;;;;3.57;3.27;;;28.80;57.50;;;;;;5068123;28;20602;-87
2021/06/12 11:51:36;;;;;;;3.37;3.17;;;28.90;57.90;;;;;;5069087;28;20629;-89
2021/06/12 11:54:05;;;;;;;3.03;2.83;;;28.90;58.10;;;;;;5069915;28;20612;-86
2021/06/12 11:56:33;;;;;;;3.40;3.20;;;29.30;54.90;;;;;;5069466;28;20730;-87
2021/06/12 11:59:01;;;;;;;3.20;3.00;;;30.00;58.20;;;;;;5069954;28;20609;-87
2021/06/12 12:01:43;;;;;;;2.90;2.70;;;30.80;57.10;;;;;;5069706;28;20621;-87
2021/06/12 12:04:11;;;;;;;3.27;3.00;;;31.00;52.80;;;;;;5066595;28;20654;-86
2021/06/12 12:06:38;;;;;;;2.77;2.60;;;31.80;52.50;;;;;;5068924;28;20645;-86
2021/06/12 12:09:06;;;;;;;4.73;2.27;;;33.00;50.70;;;;;;5069916;28;20629;-89
2021/06/12 12:11:34;;;;;;;2.53;2.43;;;33.20;48.90;;;;;;5069804;28;20617;-86
2021/06/12 12:14:05;;;;;;;2.70;2.50;;;33.10;49.00;;;;;;5069811;28;20617;-87
2021/06/12 12:16:32;;;;;;;3.03;2.83;;;33.20;49.30;;;;;;5072405;28;20617;-88
2021/06/12 12:19:01;;;;;;;3.10;3.00;;;33.50;48.30;;;;;;5073082;28;20644;-88
2021/06/12 12:21:34;;;;;;;2.87;2.77;;;34.10;48.90;;;;;;5073550;28;20621;-89
2021/06/12 12:24:02;;;;;;;2.80;2.70;;;34.70;47.60;;;;;;5062481;28;21032;-88
2021/06/12 12:26:28;;;;;;;3.57;3.37;;;34.30;47.70;;;;;;5052783;28;20645;-87
2021/06/12 12:28:57;;;;;;;2.37;2.27;;;33.90;46.60;;;;;;5052931;28;20610;-87
2021/06/12 12:31:25;;;;;;;2.73;2.50;;;33.70;47.50;;;;;;5059791;28;20637;-87
2021/06/12 12:33:53;;;;;;;3.70;2.73;;;33.40;47.80;;;;;;5072768;28;20652;-87
2021/06/12 12:36:21;;;;;;;2.70;2.60;;;33.20;48.20;;;;;;5072011;28;20602;-88
2021/06/12 12:38:57;;;;;;;2.57;2.37;;;33.40;46.50;;;;;;5072557;28;20675;-87
2021/06/12 12:41:24;;;;;;;2.63;2.40;;;33.10;47.10;;;;;;5072182;28;20632;-88
2021/06/12 12:44:05;;;;;;;2.50;2.40;;;33.10;48.30;;;;;;5072975;28;20613;-87
2021/06/12 12:46:32;;;;;;;4.40;2.30;;;33.20;49.80;;;;;;5071697;28;20695;-88
2021/06/12 12:48:59;;;;;;;2.40;2.10;;;33.00;48.10;;;;;;5071863;28;20616;-88